Accord — 2EOU7 — position and weather

sailwx.info

Track history (hours):
 
Tides and Currents Weather Stations Pressure Air Temp Water Temp Dewpoint Dewpoint Depression Visibility Wind Speed Wind Dir Waves Ship Positions

Accord

Last reported at 2017-Oct-21 07:35 UTC. Time now 2017-Dec-14 15:19 UTC.
Position N 37°07' W 008°41'.
Warning: this ship's position is 54 days out of date.

Length 18 m.

Type: Pleasure craft. MMSI: 235086944.

Date/timePositionNaut miles runAvg speedWind from/ knotsBaromVisibWave heightAir tempDewpointWater temp
2017-Oct-21 07:35N 37°07' W 008°41'0 0.0
2017-Oct-21 07:29N 37°07' W 008°41'0 0.0
2017-Oct-21 06:59N 37°07' W 008°41'0 0.0
2017-Oct-21 06:29N 37°07' W 008°41'0 0.0
2017-Oct-21 05:47N 37°07' W 008°41'0 0.0
2017-Oct-21 05:23N 37°07' W 008°41'0 0.0
2017-Oct-21 04:59N 37°07' W 008°41'0 0.0
2017-Oct-21 04:29N 37°07' W 008°41'0 0.0
2017-Oct-21 03:53N 37°07' W 008°41'0 0.0
2017-Oct-21 03:23N 37°07' W 008°41'0 0.0
2017-Oct-21 02:59N 37°07' W 008°41'0 0.0
2017-Oct-21 02:29N 37°07' W 008°41'0 0.0
2017-Oct-21 01:59N 37°07' W 008°41'0 0.0
2017-Oct-21 01:29N 37°07' W 008°41'0 0.0
2017-Oct-21 00:59N 37°07' W 008°41'0 0.0
2017-Oct-21 00:23N 37°07' W 008°41'0 0.0
2017-Oct-20 23:59N 37°07' W 008°41'0 0.0
2017-Oct-20 23:29N 37°07' W 008°41'0 0.0
2017-Oct-20 22:59N 37°07' W 008°41'0 0.0
2017-Oct-20 22:23N 37°07' W 008°41'0 0.0
2017-Oct-20 21:53N 37°07' W 008°41'0 0.0
2017-Oct-20 21:23N 37°07' W 008°41'0 0.0
2017-Oct-20 20:59N 37°07' W 008°41'0 0.0
2017-Oct-20 20:29N 37°07' W 008°41'0 0.0
2017-Oct-20 19:53N 37°07' W 008°41'0 0.0
2017-Oct-20 19:17N 37°07' W 008°41'0 0.0
2017-Oct-20 18:53N 37°07' W 008°41'0 0.0
2017-Oct-20 18:29N 37°07' W 008°41'0 0.0
2017-Oct-20 17:59N 37°07' W 008°41'0 0.0
2017-Oct-20 17:29N 37°07' W 008°41'0 0.0
2017-Oct-20 16:59N 37°07' W 008°41'0 0.0
2017-Oct-20 16:11N 37°07' W 008°41'0 0.0
2017-Oct-20 15:42N 37°07' W 008°41'1 5.0
2017-Oct-20 15:30N 37°06' W 008°40'3 6.4
2017-Oct-20 15:00N 37°06' W 008°36'4 2.8
2017-Oct-20 13:44N 37°07' W 008°31'0 0.3
2017-Oct-20 13:24N 37°07' W 008°31'3 6.6
2017-Oct-20 13:00N 37°06' W 008°35'3 5.3
2017-Oct-20 12:30N 37°06' W 008°38'2 3.6
2017-Oct-20 11:56N 37°07' W 008°41'0 0.0
2017-Oct-20 11:26N 37°07' W 008°41'0 0.0
2017-Oct-20 10:56N 37°07' W 008°41'0 0.0
2017-Oct-20 10:26N 37°07' W 008°41'0 0.0
2017-Oct-20 09:56N 37°07' W 008°41'0 0.0
2017-Oct-20 07:56N 37°07' W 008°41'0 0.0
2017-Oct-20 07:20N 37°07' W 008°41'0 0.0
2017-Oct-20 06:50N 37°07' W 008°41'0 0.0
2017-Oct-20 04:08N 37°07' W 008°41'0 0.0
2017-Oct-20 03:56N 37°07' W 008°41'0 0.0
2017-Oct-20 03:14N 37°07' W 008°41'0 0.0
2017-Oct-20 01:50N 37°07' W 008°41'0 0.0
2017-Oct-20 01:26N 37°07' W 008°41'0 0.0
2017-Oct-20 00:56N 37°07' W 008°41'0 0.0
2017-Oct-20 00:11N 37°07' W 008°41'0 0.0
2017-Oct-19 23:38N 37°07' W 008°41'0 0.0
2017-Oct-19 23:20N 37°07' W 008°41'0 0.0
2017-Oct-19 22:56N 37°07' W 008°41'0 0.0
2017-Oct-19 22:14N 37°07' W 008°41'0 0.0
2017-Oct-19 21:56N 37°07' W 008°41'0 0.0
2017-Oct-19 21:20N 37°07' W 008°41'0 0.0
2017-Oct-19 20:59N 37°07' W 008°41'0 0.0
2017-Oct-19 20:29N 37°07' W 008°41'0 0.0
2017-Oct-19 19:56N 37°07' W 008°41'0 0.0
2017-Oct-19 19:26N 37°07' W 008°41'0 0.0
2017-Oct-19 18:59N 37°07' W 008°41'0 0.0
2017-Oct-19 17:08N 37°07' W 008°41'0 0.0
2017-Oct-19 16:56N 37°07' W 008°41'0 0.0
2017-Oct-19 16:26N 37°07' W 008°41'0 0.8
2017-Oct-19 16:00N 37°06' W 008°40'1 2.6
2017-Oct-19 15:30N 37°06' W 008°39'4 7.5
2017-Oct-19 15:00N 37°07' W 008°34'1 2.7
2017-Oct-19 14:30N 37°05' W 008°34'4 8.6
2017-Oct-19 14:00N 37°03' W 008°39'4 2.5
2017-Oct-19 12:33N 37°04' W 008°43'1 7.1
2017-Oct-19 12:24N 37°04' W 008°42'2 5.1
2017-Oct-19 12:00N 37°05' W 008°40'1 2.8
2017-Oct-19 11:28N 37°07' W 008°41'0 0.0
2017-Oct-19 10:58N 37°07' W 008°41'0 0.0
2017-Oct-19 10:28N 37°07' W 008°41'0 0.0
2017-Oct-19 09:04N 37°07' W 008°41'0 0.1
2017-Oct-19 08:58N 37°07' W 008°41'0 0.0
2017-Oct-19 08:28N 37°07' W 008°41'0 0.0
2017-Oct-19 07:58N 37°07' W 008°41'0 0.0
2017-Oct-19 07:28N 37°07' W 008°41'0 0.0
2017-Oct-19 06:52N 37°07' W 008°41'0 0.0
2017-Oct-19 06:19N 37°07' W 008°41'0 0.0
2017-Oct-19 05:52N 37°07' W 008°41'0 0.0
2017-Oct-19 05:28N 37°07' W 008°41'0 0.0
2017-Oct-19 04:58N 37°07' W 008°41'0 0.0
2017-Oct-19 03:52N 37°07' W 008°41'0 0.0
2017-Oct-19 01:34N 37°07' W 008°41'0 0.0
2017-Oct-19 01:07N 37°07' W 008°41'0 0.0
2017-Oct-19 00:46N 37°07' W 008°41'0 0.0
2017-Oct-19 00:28N 37°07' W 008°41'0 0.0
2017-Oct-18 23:58N 37°07' W 008°41'0 0.0
2017-Oct-18 23:28N 37°07' W 008°41'0 0.0
2017-Oct-18 22:58N 37°07' W 008°41'0 0.0
2017-Oct-18 22:22N 37°07' W 008°41'0 0.0
2017-Oct-18 21:58N 37°07' W 008°41'0 0.0
2017-Oct-18 21:16N 37°07' W 008°41'0 0.0
2017-Oct-18 20:04N 37°07' W 008°41'0 0.0
2017-Oct-18 19:58N 37°07' W 008°41'0 0.0
2017-Oct-18 19:22N 37°07' W 008°41'0 0.0
2017-Oct-18 18:58N 37°07' W 008°41'0 0.0
2017-Oct-18 18:28N 37°07' W 008°41'0 0.0
2017-Oct-18 17:58N 37°07' W 008°41'0 0.0
2017-Oct-18 16:52N 37°07' W 008°41'0 0.0
2017-Oct-18 16:28N 37°07' W 008°41'1 2.7
2017-Oct-18 16:00N 37°06' W 008°39'3 5.3
2017-Oct-18 15:30N 37°06' W 008°36'2 4.4
2017-Oct-18 15:00N 37°05' W 008°34'3 3.0
2017-Oct-18 13:58N 37°07' W 008°32'0 0.0
2017-Oct-18 13:30N 37°07' W 008°32'2 3.3
2017-Oct-18 12:59N 37°06' W 008°32'3 6.2
2017-Oct-18 12:30N 37°05' W 008°36'3 5.8
2017-Oct-18 11:59N 37°06' W 008°40'1 1.8
2017-Oct-18 11:26N 37°07' W 008°41'0 0.0
2017-Oct-18 09:38N 37°07' W 008°41'0 0.0
2017-Oct-18 09:26N 37°07' W 008°41'0 0.0
2017-Oct-18 08:59N 37°07' W 008°41'0 0.0
2017-Oct-18 08:20N 37°07' W 008°41'0 0.0
2017-Oct-18 07:56N 37°07' W 008°41'0 0.0
2017-Oct-18 07:26N 37°07' W 008°41'0 0.0
2017-Oct-18 06:50N 37°07' W 008°41'0 0.0
2017-Oct-18 06:20N 37°07' W 008°41'0 0.0
2017-Oct-18 05:59N 37°07' W 008°41'0 0.0
2017-Oct-18 05:20N 37°07' W 008°41'0 0.0
2017-Oct-18 04:56N 37°07' W 008°41'0 0.0
2017-Oct-18 04:29N 37°07' W 008°41'0 0.0
2017-Oct-18 03:56N 37°07' W 008°41'0 0.0
2017-Oct-18 03:26N 37°07' W 008°41'0 0.0
2017-Oct-18 02:50N 37°07' W 008°41'0 0.0
2017-Oct-18 02:26N 37°07' W 008°41'0 0.0
2017-Oct-18 01:56N 37°07' W 008°41'0 0.0
2017-Oct-18 01:29N 37°07' W 008°41'0 0.0
2017-Oct-18 00:56N 37°07' W 008°41'0 0.0
2017-Oct-18 00:26N 37°07' W 008°41'0 0.0
2017-Oct-17 23:56N 37°07' W 008°41'0 0.0
2017-Oct-17 23:26N 37°07' W 008°41'0 0.0
2017-Oct-17 22:53N 37°07' W 008°41'0 0.0
2017-Oct-17 22:26N 37°07' W 008°41'0 0.0
2017-Oct-17 21:44N 37°07' W 008°41'0 0.0
2017-Oct-17 21:26N 37°07' W 008°41'0 0.0
2017-Oct-17 20:56N 37°07' W 008°41'0 0.0
2017-Oct-17 20:26N 37°07' W 008°41'0 0.0
2017-Oct-17 19:50N 37°07' W 008°41'0 0.0
2017-Oct-17 19:26N 37°07' W 008°41'0 0.0
2017-Oct-17 17:50N 37°07' W 008°41'0 0.0
2017-Oct-17 17:08N 37°07' W 008°41'0 0.0
2017-Oct-17 16:56N 37°07' W 008°41'0 0.0
2017-Oct-17 16:20N 37°07' W 008°41'0 0.0
2017-Oct-17 15:56N 37°07' W 008°41'0 0.2
2017-Oct-17 15:30N 37°06' W 008°40'2 3.9
2017-Oct-17 15:00N 37°05' W 008°39'5 8.7
2017-Oct-17 14:28N 37°02' W 008°35'2 4.1
2017-Oct-17 14:00N 37°03' W 008°33'3 5.3
2017-Oct-17 13:30N 37°04' W 008°36'3 5.9
2017-Oct-17 12:58N 37°06' W 008°39'1 0.2
2017-Oct-17 07:32N 37°07' W 008°41'0 0.0
2017-Oct-17 07:08N 37°07' W 008°41'0 0.0
2017-Oct-17 06:56N 37°07' W 008°41'0 0.0
2017-Oct-17 06:29N 37°07' W 008°41'0 0.0
2017-Oct-17 05:59N 37°07' W 008°41'0 0.0
2017-Oct-17 05:14N 37°07' W 008°41'0 0.0
2017-Oct-17 04:56N 37°07' W 008°41'0 0.0
2017-Oct-17 04:14N 37°07' W 008°41'0 0.0
2017-Oct-17 03:08N 37°07' W 008°41'0 0.0
2017-Oct-17 02:38N 37°07' W 008°41'0 0.0
2017-Oct-17 02:26N 37°07' W 008°41'0 0.0
2017-Oct-17 01:50N 37°07' W 008°41'0 0.0
2017-Oct-17 01:29N 37°07' W 008°41'0 0.0
2017-Oct-17 00:56N 37°07' W 008°41'0 0.0
2017-Oct-17 00:26N 37°07' W 008°41'0 0.0
2017-Oct-16 23:44N 37°07' W 008°41'0 0.0
2017-Oct-16 23:14N 37°07' W 008°41'0 0.0
2017-Oct-16 22:44N 37°07' W 008°41'0 0.0
2017-Oct-16 22:26N 37°07' W 008°41'0 0.0
2017-Oct-16 21:56N 37°07' W 008°41'0 0.0
2017-Oct-16 21:20N 37°07' W 008°41'0 0.0
2017-Oct-16 20:44N 37°07' W 008°41'0 0.0
2017-Oct-16 19:08N 37°07' W 008°41'0 0.0
2017-Oct-16 18:47N 37°07' W 008°41'0 0.0
2017-Oct-16 18:26N 37°07' W 008°41'0 0.0
2017-Oct-16 17:56N 37°07' W 008°41'0 0.0
2017-Oct-16 16:56N 37°07' W 008°41'0 0.0
2017-Oct-16 16:20N 37°07' W 008°41'0 0.0
2017-Oct-16 15:50N 37°07' W 008°41'0 0.0
2017-Oct-16 15:26N 37°07' W 008°41'0 0.0
2017-Oct-16 14:56N 37°07' W 008°41'0 0.0
2017-Oct-16 14:26N 37°07' W 008°41'0 0.0
2017-Oct-16 13:26N 37°07' W 008°41'0 0.0
2017-Oct-16 12:56N 37°07' W 008°41'0 0.0
2017-Oct-16 12:26N 37°07' W 008°41'0 0.0
2017-Oct-16 11:56N 37°07' W 008°41'0 0.0
2017-Oct-16 11:29N 37°07' W 008°41'0 0.0
2017-Oct-16 10:56N 37°07' W 008°41'0 0.0
2017-Oct-16 10:20N 37°07' W 008°41'0 0.0
2017-Oct-16 09:59N 37°07' W 008°41'0 0.0
2017-Oct-16 09:26N 37°07' W 008°41'0 0.0
2017-Oct-16 08:56N 37°07' W 008°41'0 0.0
2017-Oct-16 08:26N 37°07' W 008°41'0 0.0
2017-Oct-16 07:50N 37°07' W 008°41'0 0.0
2017-Oct-16 07:26N 37°07' W 008°41'0 0.0
2017-Oct-16 06:56N 37°07' W 008°41'0 0.0
2017-Oct-16 06:29N 37°07' W 008°41'0 0.0
2017-Oct-16 05:56N 37°07' W 008°41'0 0.0
2017-Oct-16 05:26N 37°07' W 008°41'0 0.0
2017-Oct-16 04:56N 37°07' W 008°41'0 0.0
2017-Oct-16 04:29N 37°07' W 008°41'0 0.0
2017-Oct-16 03:41N 37°07' W 008°41'0 0.0
2017-Oct-16 02:41N 37°07' W 008°41'0 0.0
2017-Oct-16 02:26N 37°07' W 008°41'0 0.0
2017-Oct-15 23:47N 37°07' W 008°41'0 0.0
2017-Oct-15 23:20N 37°07' W 008°41'0 0.0
2017-Oct-15 19:46N 37°07' W 008°41'0 0.0
2017-Oct-15 19:31N 37°07' W 008°41'0 0.0
2017-Oct-15 18:44N 37°07' W 008°41'0 0.0
2017-Oct-15 18:26N 37°07' W 008°41'  
Track history (hours):
 
Tides and Currents Weather Stations Pressure Air Temp Water Temp Dewpoint Dewpoint Depression Visibility Wind Speed Wind Dir Waves Ship Positions

Accord

Last reported at 2017-Oct-21 07:35 UTC. Time now 2017-Dec-14 15:19 UTC.
Position N 37°07' W 008°41'.
Warning: this ship's position is 54 days out of date.

Length 18 m.

Type: Pleasure craft. MMSI: 235086944.

Date/timePositionNaut miles runAvg speedWind from/ knotsBaromVisibWave heightAir tempDewpointWater temp
2017-Oct-21 07:35N 37°07' W 008°41'0 0.0
2017-Oct-21 07:29N 37°07' W 008°41'0 0.0
2017-Oct-21 06:59N 37°07' W 008°41'0 0.0
2017-Oct-21 06:29N 37°07' W 008°41'0 0.0
2017-Oct-21 05:47N 37°07' W 008°41'0 0.0
2017-Oct-21 05:23N 37°07' W 008°41'0 0.0
2017-Oct-21 04:59N 37°07' W 008°41'0 0.0
2017-Oct-21 04:29N 37°07' W 008°41'0 0.0
2017-Oct-21 03:53N 37°07' W 008°41'0 0.0
2017-Oct-21 03:23N 37°07' W 008°41'0 0.0
2017-Oct-21 02:59N 37°07' W 008°41'0 0.0
2017-Oct-21 02:29N 37°07' W 008°41'0 0.0
2017-Oct-21 01:59N 37°07' W 008°41'0 0.0
2017-Oct-21 01:29N 37°07' W 008°41'0 0.0
2017-Oct-21 00:59N 37°07' W 008°41'0 0.0
2017-Oct-21 00:23N 37°07' W 008°41'0 0.0
2017-Oct-20 23:59N 37°07' W 008°41'0 0.0
2017-Oct-20 23:29N 37°07' W 008°41'0 0.0
2017-Oct-20 22:59N 37°07' W 008°41'0 0.0
2017-Oct-20 22:23N 37°07' W 008°41'0 0.0
2017-Oct-20 21:53N 37°07' W 008°41'0 0.0
2017-Oct-20 21:23N 37°07' W 008°41'0 0.0
2017-Oct-20 20:59N 37°07' W 008°41'0 0.0
2017-Oct-20 20:29N 37°07' W 008°41'0 0.0
2017-Oct-20 19:53N 37°07' W 008°41'0 0.0
2017-Oct-20 19:17N 37°07' W 008°41'0 0.0
2017-Oct-20 18:53N 37°07' W 008°41'0 0.0
2017-Oct-20 18:29N 37°07' W 008°41'0 0.0
2017-Oct-20 17:59N 37°07' W 008°41'0 0.0
2017-Oct-20 17:29N 37°07' W 008°41'0 0.0
2017-Oct-20 16:59N 37°07' W 008°41'0 0.0
2017-Oct-20 16:11N 37°07' W 008°41'0 0.0
2017-Oct-20 15:42N 37°07' W 008°41'1 5.0
2017-Oct-20 15:30N 37°06' W 008°40'3 6.4
2017-Oct-20 15:00N 37°06' W 008°36'4 2.8
2017-Oct-20 13:44N 37°07' W 008°31'0 0.3
2017-Oct-20 13:24N 37°07' W 008°31'3 6.6
2017-Oct-20 13:00N 37°06' W 008°35'3 5.3
2017-Oct-20 12:30N 37°06' W 008°38'2 3.6
2017-Oct-20 11:56N 37°07' W 008°41'0 0.0
2017-Oct-20 11:26N 37°07' W 008°41'0 0.0
2017-Oct-20 10:56N 37°07' W 008°41'0 0.0
2017-Oct-20 10:26N 37°07' W 008°41'0 0.0
2017-Oct-20 09:56N 37°07' W 008°41'0 0.0
2017-Oct-20 07:56N 37°07' W 008°41'0 0.0
2017-Oct-20 07:20N 37°07' W 008°41'0 0.0
2017-Oct-20 06:50N 37°07' W 008°41'0 0.0
2017-Oct-20 04:08N 37°07' W 008°41'0 0.0
2017-Oct-20 03:56N 37°07' W 008°41'0 0.0
2017-Oct-20 03:14N 37°07' W 008°41'0 0.0
2017-Oct-20 01:50N 37°07' W 008°41'0 0.0
2017-Oct-20 01:26N 37°07' W 008°41'0 0.0
2017-Oct-20 00:56N 37°07' W 008°41'0 0.0
2017-Oct-20 00:11N 37°07' W 008°41'0 0.0
2017-Oct-19 23:38N 37°07' W 008°41'0 0.0
2017-Oct-19 23:20N 37°07' W 008°41'0 0.0
2017-Oct-19 22:56N 37°07' W 008°41'0 0.0
2017-Oct-19 22:14N 37°07' W 008°41'0 0.0
2017-Oct-19 21:56N 37°07' W 008°41'0 0.0
2017-Oct-19 21:20N 37°07' W 008°41'0 0.0
2017-Oct-19 20:59N 37°07' W 008°41'0 0.0
2017-Oct-19 20:29N 37°07' W 008°41'0 0.0
2017-Oct-19 19:56N 37°07' W 008°41'0 0.0
2017-Oct-19 19:26N 37°07' W 008°41'0 0.0
2017-Oct-19 18:59N 37°07' W 008°41'0 0.0
2017-Oct-19 17:08N 37°07' W 008°41'0 0.0
2017-Oct-19 16:56N 37°07' W 008°41'0 0.0
2017-Oct-19 16:26N 37°07' W 008°41'0 0.8
2017-Oct-19 16:00N 37°06' W 008°40'1 2.6
2017-Oct-19 15:30N 37°06' W 008°39'4 7.5
2017-Oct-19 15:00N 37°07' W 008°34'1 2.7
2017-Oct-19 14:30N 37°05' W 008°34'4 8.6
2017-Oct-19 14:00N 37°03' W 008°39'4 2.5
2017-Oct-19 12:33N 37°04' W 008°43'1 7.1
2017-Oct-19 12:24N 37°04' W 008°42'2 5.1
2017-Oct-19 12:00N 37°05' W 008°40'1 2.8
2017-Oct-19 11:28N 37°07' W 008°41'0 0.0
2017-Oct-19 10:58N 37°07' W 008°41'0 0.0
2017-Oct-19 10:28N 37°07' W 008°41'0 0.0
2017-Oct-19 09:04N 37°07' W 008°41'0 0.1
2017-Oct-19 08:58N 37°07' W 008°41'0 0.0
2017-Oct-19 08:28N 37°07' W 008°41'0 0.0
2017-Oct-19 07:58N 37°07' W 008°41'0 0.0
2017-Oct-19 07:28N 37°07' W 008°41'0 0.0
2017-Oct-19 06:52N 37°07' W 008°41'0 0.0
2017-Oct-19 06:19N 37°07' W 008°41'0 0.0
2017-Oct-19 05:52N 37°07' W 008°41'0 0.0
2017-Oct-19 05:28N 37°07' W 008°41'0 0.0
2017-Oct-19 04:58N 37°07' W 008°41'0 0.0
2017-Oct-19 03:52N 37°07' W 008°41'0 0.0
2017-Oct-19 01:34N 37°07' W 008°41'0 0.0
2017-Oct-19 01:07N 37°07' W 008°41'0 0.0
2017-Oct-19 00:46N 37°07' W 008°41'0 0.0
2017-Oct-19 00:28N 37°07' W 008°41'0 0.0
2017-Oct-18 23:58N 37°07' W 008°41'0 0.0
2017-Oct-18 23:28N 37°07' W 008°41'0 0.0
2017-Oct-18 22:58N 37°07' W 008°41'0 0.0
2017-Oct-18 22:22N 37°07' W 008°41'0 0.0
2017-Oct-18 21:58N 37°07' W 008°41'0 0.0
2017-Oct-18 21:16N 37°07' W 008°41'0 0.0
2017-Oct-18 20:04N 37°07' W 008°41'0 0.0
2017-Oct-18 19:58N 37°07' W 008°41'0 0.0
2017-Oct-18 19:22N 37°07' W 008°41'0 0.0
2017-Oct-18 18:58N 37°07' W 008°41'0 0.0
2017-Oct-18 18:28N 37°07' W 008°41'0 0.0
2017-Oct-18 17:58N 37°07' W 008°41'0 0.0
2017-Oct-18 16:52N 37°07' W 008°41'0 0.0
2017-Oct-18 16:28N 37°07' W 008°41'1 2.7
2017-Oct-18 16:00N 37°06' W 008°39'3 5.3
2017-Oct-18 15:30N 37°06' W 008°36'2 4.4
2017-Oct-18 15:00N 37°05' W 008°34'3 3.0
2017-Oct-18 13:58N 37°07' W 008°32'0 0.0
2017-Oct-18 13:30N 37°07' W 008°32'2 3.3
2017-Oct-18 12:59N 37°06' W 008°32'3 6.2
2017-Oct-18 12:30N 37°05' W 008°36'3 5.8
2017-Oct-18 11:59N 37°06' W 008°40'1 1.8
2017-Oct-18 11:26N 37°07' W 008°41'0 0.0
2017-Oct-18 09:38N 37°07' W 008°41'0 0.0
2017-Oct-18 09:26N 37°07' W 008°41'0 0.0
2017-Oct-18 08:59N 37°07' W 008°41'0 0.0
2017-Oct-18 08:20N 37°07' W 008°41'0 0.0
2017-Oct-18 07:56N 37°07' W 008°41'0 0.0
2017-Oct-18 07:26N 37°07' W 008°41'0 0.0
2017-Oct-18 06:50N 37°07' W 008°41'0 0.0
2017-Oct-18 06:20N 37°07' W 008°41'0 0.0
2017-Oct-18 05:59N 37°07' W 008°41'0 0.0
2017-Oct-18 05:20N 37°07' W 008°41'0 0.0
2017-Oct-18 04:56N 37°07' W 008°41'0 0.0
2017-Oct-18 04:29N 37°07' W 008°41'0 0.0
2017-Oct-18 03:56N 37°07' W 008°41'0 0.0
2017-Oct-18 03:26N 37°07' W 008°41'0 0.0
2017-Oct-18 02:50N 37°07' W 008°41'0 0.0
2017-Oct-18 02:26N 37°07' W 008°41'0 0.0
2017-Oct-18 01:56N 37°07' W 008°41'0 0.0
2017-Oct-18 01:29N 37°07' W 008°41'0 0.0
2017-Oct-18 00:56N 37°07' W 008°41'0 0.0
2017-Oct-18 00:26N 37°07' W 008°41'0 0.0
2017-Oct-17 23:56N 37°07' W 008°41'0 0.0
2017-Oct-17 23:26N 37°07' W 008°41'0 0.0
2017-Oct-17 22:53N 37°07' W 008°41'0 0.0
2017-Oct-17 22:26N 37°07' W 008°41'0 0.0
2017-Oct-17 21:44N 37°07' W 008°41'0 0.0
2017-Oct-17 21:26N 37°07' W 008°41'0 0.0
2017-Oct-17 20:56N 37°07' W 008°41'0 0.0
2017-Oct-17 20:26N 37°07' W 008°41'0 0.0
2017-Oct-17 19:50N 37°07' W 008°41'0 0.0
2017-Oct-17 19:26N 37°07' W 008°41'0 0.0
2017-Oct-17 17:50N 37°07' W 008°41'0 0.0
2017-Oct-17 17:08N 37°07' W 008°41'0 0.0
2017-Oct-17 16:56N 37°07' W 008°41'0 0.0
2017-Oct-17 16:20N 37°07' W 008°41'0 0.0
2017-Oct-17 15:56N 37°07' W 008°41'0 0.2
2017-Oct-17 15:30N 37°06' W 008°40'2 3.9
2017-Oct-17 15:00N 37°05' W 008°39'5 8.7
2017-Oct-17 14:28N 37°02' W 008°35'2 4.1
2017-Oct-17 14:00N 37°03' W 008°33'3 5.3
2017-Oct-17 13:30N 37°04' W 008°36'3 5.9
2017-Oct-17 12:58N 37°06' W 008°39'1 0.2
2017-Oct-17 07:32N 37°07' W 008°41'0 0.0
2017-Oct-17 07:08N 37°07' W 008°41'0 0.0
2017-Oct-17 06:56N 37°07' W 008°41'0 0.0
2017-Oct-17 06:29N 37°07' W 008°41'0 0.0
2017-Oct-17 05:59N 37°07' W 008°41'0 0.0
2017-Oct-17 05:14N 37°07' W 008°41'0 0.0
2017-Oct-17 04:56N 37°07' W 008°41'0 0.0
2017-Oct-17 04:14N 37°07' W 008°41'0 0.0
2017-Oct-17 03:08N 37°07' W 008°41'0 0.0
2017-Oct-17 02:38N 37°07' W 008°41'0 0.0
2017-Oct-17 02:26N 37°07' W 008°41'0 0.0
2017-Oct-17 01:50N 37°07' W 008°41'0 0.0
2017-Oct-17 01:29N 37°07' W 008°41'0 0.0
2017-Oct-17 00:56N 37°07' W 008°41'0 0.0
2017-Oct-17 00:26N 37°07' W 008°41'0 0.0
2017-Oct-16 23:44N 37°07' W 008°41'0 0.0
2017-Oct-16 23:14N 37°07' W 008°41'0 0.0
2017-Oct-16 22:44N 37°07' W 008°41'0 0.0
2017-Oct-16 22:26N 37°07' W 008°41'0 0.0
2017-Oct-16 21:56N 37°07' W 008°41'0 0.0
2017-Oct-16 21:20N 37°07' W 008°41'0 0.0
2017-Oct-16 20:44N 37°07' W 008°41'0 0.0
2017-Oct-16 19:08N 37°07' W 008°41'0 0.0
2017-Oct-16 18:47N 37°07' W 008°41'0 0.0
2017-Oct-16 18:26N 37°07' W 008°41'0 0.0
2017-Oct-16 17:56N 37°07' W 008°41'0 0.0
2017-Oct-16 16:56N 37°07' W 008°41'0 0.0
2017-Oct-16 16:20N 37°07' W 008°41'0 0.0
2017-Oct-16 15:50N 37°07' W 008°41'0 0.0
2017-Oct-16 15:26N 37°07' W 008°41'0 0.0
2017-Oct-16 14:56N 37°07' W 008°41'0 0.0
2017-Oct-16 14:26N 37°07' W 008°41'0 0.0
2017-Oct-16 13:26N 37°07' W 008°41'0 0.0
2017-Oct-16 12:56N 37°07' W 008°41'0 0.0
2017-Oct-16 12:26N 37°07' W 008°41'0 0.0
2017-Oct-16 11:56N 37°07' W 008°41'0 0.0
2017-Oct-16 11:29N 37°07' W 008°41'0 0.0
2017-Oct-16 10:56N 37°07' W 008°41'0 0.0
2017-Oct-16 10:20N 37°07' W 008°41'0 0.0
2017-Oct-16 09:59N 37°07' W 008°41'0 0.0
2017-Oct-16 09:26N 37°07' W 008°41'0 0.0
2017-Oct-16 08:56N 37°07' W 008°41'0 0.0
2017-Oct-16 08:26N 37°07' W 008°41'0 0.0
2017-Oct-16 07:50N 37°07' W 008°41'0 0.0
2017-Oct-16 07:26N 37°07' W 008°41'0 0.0
2017-Oct-16 06:56N 37°07' W 008°41'0 0.0
2017-Oct-16 06:29N 37°07' W 008°41'0 0.0
2017-Oct-16 05:56N 37°07' W 008°41'0 0.0
2017-Oct-16 05:26N 37°07' W 008°41'0 0.0
2017-Oct-16 04:56N 37°07' W 008°41'0 0.0
2017-Oct-16 04:29N 37°07' W 008°41'0 0.0
2017-Oct-16 03:41N 37°07' W 008°41'0 0.0
2017-Oct-16 02:41N 37°07' W 008°41'0 0.0
2017-Oct-16 02:26N 37°07' W 008°41'0 0.0
2017-Oct-15 23:47N 37°07' W 008°41'0 0.0
2017-Oct-15 23:20N 37°07' W 008°41'0 0.0
2017-Oct-15 19:46N 37°07' W 008°41'0 0.0
2017-Oct-15 19:31N 37°07' W 008°41'0 0.0
2017-Oct-15 18:44N 37°07' W 008°41'0 0.0
2017-Oct-15 18:26N 37°07' W 008°41'  

Dump ship's entire track history